createdAt,value
2018-07-19T00:01:01.060Z,3.80
2018-07-19T00:03:29.281Z,4.73
2018-07-19T00:05:57.451Z,4.20
2018-07-19T00:08:25.650Z,3.30
2018-07-19T00:10:53.885Z,4.10
2018-07-19T00:13:22.609Z,4.33
2018-07-19T00:15:51.040Z,3.90
2018-07-19T00:18:20.291Z,5.10
2018-07-19T00:20:48.508Z,3.97
2018-07-19T00:23:16.730Z,3.83
2018-07-19T00:25:44.891Z,3.43
2018-07-19T00:28:13.152Z,4.50
2018-07-19T00:30:41.312Z,3.30
2018-07-19T00:33:09.493Z,3.70
2018-07-19T00:35:37.682Z,3.90
2018-07-19T00:38:06.142Z,4.37
2018-07-19T00:40:34.379Z,5.30
2018-07-19T00:43:02.564Z,4.50
2018-07-19T00:45:30.956Z,4.00
2018-07-19T00:47:59.171Z,4.90
2018-07-19T00:50:27.371Z,4.37
2018-07-19T00:52:56.454Z,4.67
2018-07-19T00:55:24.694Z,4.30
2018-07-19T00:57:52.861Z,4.10
2018-07-19T01:00:21.070Z,4.90
2018-07-19T01:02:49.276Z,3.90
2018-07-19T01:05:17.516Z,4.17
2018-07-19T01:07:45.730Z,3.53
2018-07-19T01:10:13.910Z,4.03
2018-07-19T01:12:42.050Z,3.63
2018-07-19T01:15:10.266Z,3.90
2018-07-19T01:17:38.468Z,3.30
2018-07-19T01:20:06.644Z,3.50
2018-07-19T01:22:34.806Z,4.60
2018-07-19T01:25:03.015Z,3.87
2018-07-19T01:27:30.920Z,3.80
2018-07-19T01:29:59.202Z,3.63
2018-07-19T01:32:27.367Z,3.77
2018-07-19T01:34:55.587Z,3.80
2018-07-19T01:37:23.847Z,3.83
2018-07-19T01:39:52.093Z,3.90
2018-07-19T01:42:36.417Z,4.33
2018-07-19T01:45:05.949Z,3.67
2018-07-19T01:47:34.151Z,3.80
2018-07-19T01:50:02.465Z,3.00
2018-07-19T01:52:30.717Z,3.43
2018-07-19T01:54:58.878Z,3.90
2018-07-19T01:57:27.025Z,3.40
2018-07-19T01:59:55.779Z,3.50
2018-07-19T02:02:23.908Z,3.80
2018-07-19T02:04:52.122Z,3.67
2018-07-19T02:07:20.308Z,3.90
2018-07-19T02:09:48.583Z,3.67
2018-07-19T02:12:16.885Z,3.30
2018-07-19T02:14:45.044Z,3.57
2018-07-19T02:17:13.338Z,2.90
2018-07-19T02:19:41.531Z,3.30
2018-07-19T02:22:10.376Z,3.27
2018-07-19T02:24:38.574Z,4.00
2018-07-19T02:27:07.035Z,4.13
2018-07-19T02:29:35.141Z,3.70
2018-07-19T02:32:03.398Z,3.30
2018-07-19T02:34:31.370Z,3.30
2018-07-19T02:37:01.684Z,3.33
2018-07-19T02:39:30.009Z,3.60
2018-07-19T02:41:59.561Z,3.40
2018-07-19T02:44:27.858Z,3.70
2018-07-19T02:46:56.093Z,2.87
2018-07-19T02:49:25.642Z,3.60
2018-07-19T02:51:55.106Z,3.00
2018-07-19T02:54:23.215Z,3.60
2018-07-19T02:56:51.422Z,4.00
2018-07-19T02:59:20.176Z,3.57
2018-07-19T03:01:48.403Z,3.17
2018-07-19T03:04:16.677Z,2.70
2018-07-19T03:06:45.544Z,2.97
2018-07-19T03:09:13.700Z,2.97
2018-07-19T03:11:42.323Z,3.20
2018-07-19T03:14:12.035Z,3.53
2018-07-19T03:16:40.748Z,3.00
2018-07-19T03:19:09.002Z,3.53
2018-07-19T03:21:38.757Z,3.50
2018-07-19T03:24:07.475Z,2.83
2018-07-19T03:26:35.955Z,2.50
2018-07-19T03:29:05.456Z,3.20
2018-07-19T03:31:33.635Z,2.90
2018-07-19T03:34:03.073Z,2.93
2018-07-19T03:36:31.452Z,2.93
2018-07-19T03:38:59.657Z,3.10
2018-07-19T03:41:28.578Z,2.93
2018-07-19T03:43:56.755Z,2.83
2018-07-19T03:46:26.935Z,2.67
2018-07-19T03:48:55.900Z,2.80
2018-07-19T03:51:25.157Z,2.70
2018-07-19T03:53:53.305Z,2.53
2018-07-19T03:56:22.154Z,2.73
2018-07-19T03:58:51.271Z,2.73
2018-07-19T04:01:19.775Z,3.00
2018-07-19T04:03:48.010Z,3.13
2018-07-19T04:06:16.181Z,2.70
2018-07-19T04:08:44.602Z,3.33
2018-07-19T04:11:15.243Z,2.37
2018-07-19T04:13:44.539Z,2.70
2018-07-19T04:16:12.873Z,2.57
2018-07-19T04:18:41.213Z,2.53
2018-07-19T04:21:10.553Z,2.90
2018-07-19T04:23:38.759Z,2.70
2018-07-19T04:26:08.797Z,2.50
2018-07-19T04:28:37.053Z,2.30
2018-07-19T04:31:05.304Z,2.60
2018-07-19T04:33:34.060Z,3.50
2018-07-19T04:36:02.697Z,2.90
2018-07-19T04:38:31.117Z,2.70
2018-07-19T04:40:59.296Z,2.70
2018-07-19T04:43:27.457Z,2.70
2018-07-19T04:45:57.932Z,2.97
2018-07-19T04:48:28.921Z,2.93
2018-07-19T04:50:57.123Z,3.07
2018-07-19T04:53:26.273Z,3.20
2018-07-19T04:55:54.677Z,3.27
2018-07-19T04:58:22.826Z,3.93
2018-07-19T05:00:50.987Z,2.53
2018-07-19T05:03:19.831Z,2.73
2018-07-19T05:05:49.189Z,2.17
2018-07-19T05:08:17.601Z,2.80
2018-07-19T05:10:45.867Z,2.57
2018-07-19T05:13:14.075Z,2.50
2018-07-19T05:15:42.519Z,2.07
2018-07-19T05:18:10.695Z,2.73
2018-07-19T05:20:38.839Z,2.33
2018-07-19T05:23:08.200Z,2.60
2018-07-19T05:25:36.339Z,2.20
2018-07-19T05:28:04.589Z,2.30
2018-07-19T05:30:33.014Z,3.50
2018-07-19T05:33:01.244Z,2.97
2018-07-19T05:35:29.420Z,2.80
2018-07-19T05:37:57.416Z,2.70
2018-07-19T05:40:25.380Z,2.80
2018-07-19T05:42:54.578Z,3.10
2018-07-19T05:45:24.916Z,3.23
2018-07-19T05:47:53.174Z,2.97
2018-07-19T05:50:21.410Z,3.10
2018-07-19T05:52:51.284Z,3.50
2018-07-19T05:55:19.682Z,3.30
2018-07-19T05:57:49.164Z,3.17
2018-07-19T06:00:17.634Z,3.83
2018-07-19T06:02:45.886Z,3.00
2018-07-19T06:05:14.554Z,2.73
2018-07-19T06:07:43.520Z,3.30
2018-07-19T06:10:12.573Z,3.40
2018-07-19T06:12:40.910Z,3.13
2018-07-19T06:15:09.134Z,3.30
2018-07-19T06:17:38.202Z,3.30
2018-07-19T06:20:07.833Z,3.30
2018-07-19T06:22:35.994Z,3.00
2018-07-19T06:25:04.146Z,3.00
2018-07-19T06:27:33.094Z,3.40
2018-07-19T06:30:02.517Z,3.33
2018-07-19T06:32:31.034Z,3.60
2018-07-19T06:34:59.378Z,2.87
2018-07-19T06:37:27.590Z,3.23
2018-07-19T06:39:55.766Z,3.23
2018-07-19T06:42:24.414Z,2.80
2018-07-19T06:44:52.630Z,2.90
2018-07-19T06:47:21.243Z,2.90
2018-07-19T06:49:49.437Z,2.77
2018-07-19T06:52:17.635Z,2.70
2018-07-19T06:54:46.276Z,2.70
2018-07-19T06:57:14.704Z,2.70
2018-07-19T06:59:43.094Z,2.70
2018-07-19T07:02:12.527Z,2.57
2018-07-19T07:04:41.404Z,2.80
2018-07-19T07:07:09.912Z,3.03
2018-07-19T07:09:38.291Z,2.33
2018-07-19T07:12:06.481Z,2.67
2018-07-19T07:14:34.664Z,2.83
2018-07-19T07:17:05.824Z,3.03
2018-07-19T07:19:34.366Z,3.00
2018-07-19T07:22:03.765Z,3.40
2018-07-19T07:24:32.455Z,2.60
2018-07-19T07:27:01.714Z,3.00
2018-07-19T07:29:29.862Z,3.20
2018-07-19T07:31:58.473Z,3.10
2018-07-19T07:34:27.240Z,3.10
2018-07-19T07:36:55.413Z,3.50
2018-07-19T07:39:24.144Z,3.40
2018-07-19T07:41:52.685Z,3.53
2018-07-19T07:44:21.692Z,2.97
2018-07-19T07:46:51.832Z,3.27
2018-07-19T07:49:21.209Z,3.70
2018-07-19T07:51:50.699Z,4.00
2018-07-19T07:54:19.766Z,3.60
2018-07-19T07:56:48.563Z,4.40
2018-07-19T07:59:16.756Z,3.60
2018-07-19T08:01:45.410Z,3.80
2018-07-19T08:04:14.594Z,4.20
2018-07-19T08:06:43.122Z,4.00
2018-07-19T08:09:11.856Z,3.70
2018-07-19T08:11:40.121Z,3.70
2018-07-19T08:14:08.663Z,4.00
2018-07-19T08:16:36.879Z,4.00
2018-07-19T08:19:05.092Z,3.67
2018-07-19T08:21:33.435Z,4.37
2018-07-19T08:24:01.832Z,3.90
2018-07-19T08:26:30.220Z,4.53
2018-07-19T08:28:58.502Z,4.23
2018-07-19T08:31:26.613Z,3.70
2018-07-19T08:33:54.780Z,4.53
2018-07-19T08:36:22.948Z,4.07
2018-07-19T08:38:51.167Z,5.00
2018-07-19T08:41:19.459Z,4.67
2018-07-19T08:43:48.481Z,4.80
2018-07-19T08:46:16.656Z,5.80
2018-07-19T08:48:44.832Z,5.37
2018-07-19T08:51:12.998Z,4.50
2018-07-19T08:53:41.182Z,5.53
2018-07-19T08:56:09.348Z,5.90
2018-07-19T08:58:37.324Z,5.60
2018-07-19T09:01:05.349Z,4.90
2018-07-19T09:03:33.719Z,5.27
2018-07-19T09:06:01.954Z,5.50
2018-07-19T09:08:29.910Z,5.30
2018-07-19T09:10:58.390Z,4.90
2018-07-19T09:13:26.879Z,5.30
2018-07-19T09:15:55.088Z,5.93
2018-07-19T09:18:23.226Z,5.13
2018-07-19T09:20:51.408Z,4.70
2018-07-19T09:23:20.252Z,4.43
2018-07-19T09:25:48.520Z,5.10
2018-07-19T09:28:16.769Z,3.63
2018-07-19T09:30:44.915Z,3.80
2018-07-19T09:33:13.111Z,4.60
2018-07-19T09:35:41.391Z,4.33
2018-07-19T09:38:09.730Z,3.50
2018-07-19T09:40:38.053Z,4.33
2018-07-19T09:43:06.234Z,4.23
2018-07-19T09:45:34.410Z,3.60
2018-07-19T09:48:02.596Z,3.70
2018-07-19T09:50:31.780Z,3.50
2018-07-19T09:52:59.959Z,3.80
2018-07-19T09:55:29.062Z,4.40
2018-07-19T09:57:57.274Z,3.70
2018-07-19T10:00:31.020Z,4.00
2018-07-19T10:03:00.900Z,4.47
2018-07-19T10:05:29.058Z,3.80
2018-07-19T10:07:57.310Z,3.70
2018-07-19T10:10:25.519Z,3.40
2018-07-19T10:12:53.810Z,3.83
2018-07-19T10:15:22.154Z,4.07
2018-07-19T10:17:50.354Z,3.10
2018-07-19T10:20:18.977Z,3.47
2018-07-19T10:22:47.138Z,3.73
2018-07-19T10:25:15.284Z,3.57
2018-07-19T10:27:43.518Z,3.97
2018-07-19T10:30:11.718Z,3.57
2018-07-19T10:32:40.633Z,3.90
2018-07-19T10:35:08.912Z,4.07
2018-07-19T10:37:37.608Z,3.60
2018-07-19T10:40:07.506Z,3.53
2018-07-19T10:42:36.006Z,3.57
2018-07-19T10:45:04.384Z,3.00
2018-07-19T10:47:32.643Z,3.77
2018-07-19T10:50:01.431Z,3.90
2018-07-19T10:52:29.829Z,3.30
2018-07-19T10:54:57.968Z,3.40
2018-07-19T10:57:26.262Z,3.60
2018-07-19T10:59:54.447Z,3.40
2018-07-19T11:02:22.647Z,3.63
2018-07-19T11:04:50.812Z,3.73
2018-07-19T11:07:18.980Z,3.73
2018-07-19T11:09:47.820Z,3.50
2018-07-19T11:12:16.546Z,3.80
2018-07-19T11:14:44.935Z,3.70
2018-07-19T11:17:13.267Z,3.43
2018-07-19T11:19:41.398Z,3.83
2018-07-19T11:22:09.725Z,3.80
2018-07-19T11:24:37.925Z,3.33
2018-07-19T11:27:06.597Z,3.33
2018-07-19T11:29:35.085Z,3.20
2018-07-19T11:32:04.415Z,3.60
2018-07-19T11:34:32.649Z,3.60
2018-07-19T11:37:01.677Z,3.40
2018-07-19T11:39:30.259Z,2.87
2018-07-19T11:41:59.575Z,3.00
2018-07-19T11:44:28.145Z,3.70
2018-07-19T11:46:56.371Z,4.07
2018-07-19T11:49:24.660Z,3.40
2018-07-19T11:51:52.781Z,3.20
2018-07-19T11:54:21.473Z,3.40
2018-07-19T11:56:50.865Z,3.57
2018-07-19T11:59:19.735Z,3.73
2018-07-19T12:01:48.757Z,3.93
2018-07-19T12:04:17.019Z,3.27
2018-07-19T12:06:45.807Z,3.67
2018-07-19T12:09:14.095Z,4.03
2018-07-19T12:11:44.001Z,3.60
2018-07-19T12:14:13.279Z,3.20
2018-07-19T12:16:42.352Z,3.67
2018-07-19T12:19:10.811Z,3.90
2018-07-19T12:21:40.195Z,3.60
2018-07-19T12:24:09.691Z,3.40
2018-07-19T12:26:39.456Z,3.03
2018-07-19T12:29:08.376Z,3.70
2018-07-19T12:31:39.012Z,3.27
2018-07-19T12:34:08.741Z,3.73
2018-07-19T12:36:38.869Z,2.73
2018-07-19T12:39:09.928Z,2.43
2018-07-19T12:41:39.919Z,2.93
2018-07-19T12:44:08.799Z,3.30
2018-07-19T12:46:37.397Z,2.50
2018-07-19T12:49:07.764Z,2.60
2018-07-19T12:51:36.176Z,2.97
2018-07-19T12:54:04.679Z,2.70
2018-07-19T12:56:34.693Z,2.73
2018-07-19T12:59:03.258Z,3.47
2018-07-19T13:01:33.103Z,2.57
2018-07-19T13:04:01.367Z,2.70
2018-07-19T13:06:29.589Z,2.40
2018-07-19T13:08:57.778Z,2.40
2018-07-19T13:11:25.967Z,2.60
2018-07-19T13:13:54.529Z,2.13
2018-07-19T13:16:23.290Z,2.20
2018-07-19T13:18:52.323Z,2.20
2018-07-19T13:21:21.310Z,2.40
2018-07-19T13:23:50.078Z,2.40
2018-07-19T13:26:19.430Z,3.73
2018-07-19T13:28:47.849Z,1.80
2018-07-19T13:31:16.058Z,2.17
2018-07-19T13:33:45.392Z,2.10
2018-07-19T13:36:14.417Z,2.37
2018-07-19T13:38:42.601Z,2.17
2018-07-19T13:41:11.048Z,1.87
2018-07-19T13:43:39.687Z,1.93
2018-07-19T13:46:09.784Z,1.90
2018-07-19T13:48:38.278Z,2.20
2018-07-19T13:51:07.051Z,2.30
2018-07-19T13:53:51.759Z,5.63
2018-07-19T13:56:20.225Z,2.03
2018-07-19T13:58:48.428Z,1.70
2018-07-19T14:01:16.862Z,1.53
2018-07-19T14:03:45.127Z,1.73
2018-07-19T14:06:13.642Z,2.07
2018-07-19T14:08:41.792Z,1.50
2018-07-19T14:11:09.938Z,1.80
2018-07-19T14:13:38.262Z,2.03
2018-07-19T14:16:06.429Z,1.80
2018-07-19T14:18:34.981Z,1.87
2018-07-19T14:21:03.127Z,1.80
2018-07-19T14:23:31.264Z,2.03
2018-07-19T14:25:59.480Z,1.90
2018-07-19T14:28:28.253Z,1.77
2018-07-19T14:30:57.084Z,1.73
2018-07-19T14:33:25.190Z,2.00
2018-07-19T14:35:53.532Z,2.47
2018-07-19T14:38:22.424Z,2.00
2018-07-19T14:40:50.631Z,2.10
2018-07-19T14:43:18.842Z,2.30
2018-07-19T14:45:47.239Z,2.03
2018-07-19T14:48:15.685Z,1.70
2018-07-19T14:50:43.873Z,1.77
2018-07-19T14:53:12.351Z,2.10
2018-07-19T14:55:41.724Z,2.00
2018-07-19T14:58:10.451Z,1.80
2018-07-19T15:00:38.611Z,1.40
2018-07-19T15:03:08.045Z,1.40
2018-07-19T15:05:37.459Z,2.03
2018-07-19T15:08:05.987Z,1.23
2018-07-19T15:10:34.118Z,1.33
2018-07-19T15:13:02.277Z,1.67
2018-07-19T15:15:30.463Z,1.33
2018-07-19T15:17:59.047Z,1.60
2018-07-19T15:20:27.435Z,1.70
2018-07-19T15:22:55.648Z,2.53
2018-07-19T15:25:24.011Z,1.70
2018-07-19T15:27:52.988Z,1.40
2018-07-19T15:30:21.735Z,1.60
2018-07-19T15:32:51.224Z,1.93
2018-07-19T15:35:19.618Z,1.80
2018-07-19T15:37:47.764Z,1.50
2018-07-19T15:40:15.968Z,1.73
2018-07-19T15:42:44.728Z,1.83
2018-07-19T15:45:14.754Z,1.43
2018-07-19T15:47:43.505Z,1.53
2018-07-19T15:50:11.488Z,1.50
2018-07-19T15:52:41.433Z,2.00
2018-07-19T15:55:10.037Z,2.20
2018-07-19T15:57:38.623Z,1.97
2018-07-19T16:00:07.523Z,1.93
2018-07-19T16:02:37.139Z,1.93
2018-07-19T16:05:05.311Z,1.63
2018-07-19T16:07:33.518Z,1.93
2018-07-19T16:10:02.463Z,2.00
2018-07-19T16:12:31.455Z,1.93
2018-07-19T16:15:00.068Z,2.00
2018-07-19T16:17:28.751Z,1.80
2018-07-19T16:19:58.056Z,2.00
2018-07-19T16:22:27.492Z,1.80
2018-07-19T16:24:56.813Z,1.73
2018-07-19T16:27:25.679Z,1.80
2018-07-19T16:29:56.642Z,2.43
2018-07-19T16:32:24.824Z,2.37
2018-07-19T16:34:52.754Z,2.37
2018-07-19T16:37:23.982Z,2.80
2018-07-19T16:39:53.387Z,2.60
2018-07-19T16:42:21.535Z,2.27
2018-07-19T16:44:51.488Z,2.53
2018-07-19T16:47:20.188Z,2.77
2018-07-19T16:49:49.177Z,2.43
2018-07-19T16:52:19.236Z,2.60
2018-07-19T16:54:47.882Z,2.57
2018-07-19T16:57:19.732Z,2.20
2018-07-19T16:59:47.866Z,2.30
2018-07-19T17:02:16.023Z,2.50
2018-07-19T17:04:45.046Z,3.13
2018-07-19T17:07:13.027Z,2.60
2018-07-19T17:09:41.398Z,2.47
2018-07-19T17:12:09.704Z,2.80
2018-07-19T17:14:38.454Z,2.50
2018-07-19T17:17:07.557Z,2.60
2018-07-19T17:19:35.578Z,2.50
2018-07-19T17:22:03.969Z,3.10
2018-07-19T17:24:32.280Z,2.53
2018-07-19T17:27:01.272Z,2.47
2018-07-19T17:29:30.472Z,2.77
2018-07-19T17:31:58.622Z,2.23
2018-07-19T17:34:28.728Z,2.60
2018-07-19T17:36:57.450Z,2.30
2018-07-19T17:39:26.916Z,2.70
2018-07-19T17:41:58.121Z,2.70
2018-07-19T17:44:26.864Z,2.60
2018-07-19T17:46:55.420Z,2.83
2018-07-19T17:49:24.133Z,2.40
2018-07-19T17:51:53.672Z,2.90
2018-07-19T17:54:21.889Z,2.57
2018-07-19T17:56:49.948Z,3.30
2018-07-19T17:59:18.160Z,2.43
2018-07-19T18:01:47.313Z,3.10
2018-07-19T18:04:15.746Z,2.63
2018-07-19T18:06:44.198Z,2.80
2018-07-19T18:09:12.374Z,2.47
2018-07-19T18:11:41.211Z,2.50
2018-07-19T18:14:09.430Z,2.40
2018-07-19T18:16:38.040Z,2.50
2018-07-19T18:19:06.926Z,2.60
2018-07-19T18:21:35.800Z,2.73
2018-07-19T18:24:04.234Z,2.43
2018-07-19T18:26:33.128Z,2.57
2018-07-19T18:29:01.318Z,3.13
2018-07-19T18:31:29.494Z,2.23
2018-07-19T18:33:57.794Z,2.20
2018-07-19T18:36:25.988Z,2.53
2018-07-19T18:38:55.208Z,2.60
2018-07-19T18:41:23.377Z,2.57
2018-07-19T18:43:51.578Z,2.80
2018-07-19T18:46:19.974Z,2.67
2018-07-19T18:48:48.272Z,2.67
2018-07-19T18:51:16.502Z,3.20
2018-07-19T18:53:44.705Z,2.57
2018-07-19T18:56:12.939Z,2.40
2018-07-19T18:58:41.123Z,2.60
2018-07-19T19:01:09.530Z,2.50
2018-07-19T19:03:38.682Z,2.20
2018-07-19T19:06:06.906Z,3.17
2018-07-19T19:08:35.044Z,2.87
2018-07-19T19:11:03.683Z,2.53
2018-07-19T19:13:32.201Z,2.40
2018-07-19T19:16:01.015Z,2.33
2018-07-19T19:18:29.609Z,2.60
2018-07-19T19:20:58.117Z,2.43
2018-07-19T19:23:26.482Z,2.33
2018-07-19T19:25:54.556Z,3.03
2018-07-19T19:28:23.361Z,3.23
2018-07-19T19:30:51.691Z,2.93
2018-07-19T19:33:19.980Z,2.37
2018-07-19T19:35:48.459Z,2.60
2018-07-19T19:38:16.819Z,2.40
2018-07-19T19:40:45.184Z,2.97
2018-07-19T19:43:14.687Z,2.40
2018-07-19T19:45:43.272Z,2.33
2018-07-19T19:48:12.158Z,2.80
2018-07-19T19:50:40.708Z,2.60
2018-07-19T19:53:09.153Z,2.30
2018-07-19T19:55:37.273Z,2.47
2018-07-19T19:58:05.583Z,2.43
2018-07-19T20:00:34.117Z,2.40
2018-07-19T20:03:02.407Z,2.63
2018-07-19T20:05:30.804Z,2.37
2018-07-19T20:07:59.261Z,3.60
2018-07-19T20:10:27.645Z,3.17
2018-07-19T20:12:56.239Z,3.00
2018-07-19T20:15:24.653Z,3.37
2018-07-19T20:17:53.341Z,3.73
2018-07-19T20:20:21.715Z,3.43
2018-07-19T20:22:51.468Z,3.40
2018-07-19T20:25:20.741Z,3.33
2018-07-19T20:27:49.004Z,4.73
2018-07-19T20:30:17.229Z,4.00
2018-07-19T20:32:45.438Z,3.97
2018-07-19T20:35:13.412Z,4.50
2018-07-19T20:37:41.649Z,4.90
2018-07-19T20:40:09.967Z,4.60
2018-07-19T20:42:38.289Z,4.43
2018-07-19T20:45:07.075Z,4.37
2018-07-19T20:47:35.275Z,4.63
2018-07-19T20:50:04.060Z,5.00
2018-07-19T20:52:32.243Z,4.30
2018-07-19T20:55:00.484Z,4.40
2018-07-19T20:57:28.687Z,4.50
2018-07-19T20:59:57.059Z,3.93
2018-07-19T21:02:25.236Z,5.20
2018-07-19T21:04:53.393Z,6.37
2018-07-19T21:07:21.583Z,5.30
2018-07-19T21:09:49.826Z,4.90
2018-07-19T21:12:18.066Z,4.67
2018-07-19T21:14:46.402Z,5.97
2018-07-19T21:17:14.654Z,5.30
2018-07-19T21:19:42.827Z,4.80
2018-07-19T21:22:11.111Z,4.70
2018-07-19T21:24:40.277Z,4.47
2018-07-19T21:27:08.422Z,4.60
2018-07-19T21:29:36.776Z,5.90
2018-07-19T21:32:05.028Z,5.50
2018-07-19T21:34:33.350Z,5.33
2018-07-19T21:37:01.626Z,4.87
2018-07-19T21:39:29.856Z,5.37
2018-07-19T21:41:58.010Z,5.33
2018-07-19T21:44:26.822Z,5.77
2018-07-19T21:46:54.962Z,5.97
2018-07-19T21:49:23.097Z,5.33
2018-07-19T21:51:51.222Z,5.33
2018-07-19T21:54:19.359Z,5.83
2018-07-19T21:56:47.598Z,6.77
2018-07-19T21:59:15.994Z,5.17
2018-07-19T22:01:44.195Z,5.53
2018-07-19T22:04:13.143Z,5.30
2018-07-19T22:06:41.295Z,5.37
2018-07-19T22:09:11.673Z,6.07
2018-07-19T22:11:40.027Z,5.57
2018-07-19T22:14:08.539Z,5.33
2018-07-19T22:16:38.585Z,6.03
2018-07-19T22:19:06.704Z,5.60
2018-07-19T22:21:34.874Z,5.70
2018-07-19T22:24:03.136Z,6.13
2018-07-19T22:26:32.336Z,5.50
2018-07-19T22:29:00.529Z,6.10
2018-07-19T22:31:28.658Z,5.13
2018-07-19T22:33:56.699Z,6.93
2018-07-19T22:36:24.834Z,6.00
2018-07-19T22:38:53.002Z,5.20
2018-07-19T22:41:21.160Z,5.70
2018-07-19T22:43:49.262Z,6.00
2018-07-19T22:46:17.496Z,5.40
2018-07-19T22:48:45.711Z,5.13
2018-07-19T22:51:13.875Z,6.30
2018-07-19T22:53:42.058Z,6.00
2018-07-19T22:56:10.464Z,7.20
2018-07-19T22:58:38.854Z,6.97
2018-07-19T23:01:07.564Z,5.87
2018-07-19T23:03:35.983Z,5.87
2018-07-19T23:06:04.225Z,6.50
2018-07-19T23:08:32.576Z,5.90
2018-07-19T23:11:00.829Z,6.07
2018-07-19T23:13:28.883Z,6.00
2018-07-19T23:15:57.047Z,6.30
2018-07-19T23:18:25.185Z,5.80
2018-07-19T23:20:53.332Z,5.60
2018-07-19T23:23:21.458Z,5.50
2018-07-19T23:25:49.574Z,5.90
2018-07-19T23:28:17.730Z,5.73
2018-07-19T23:30:45.953Z,5.50
2018-07-19T23:33:14.071Z,6.57
2018-07-19T23:35:47.777Z,6.60
2018-07-19T23:38:23.406Z,6.20
2018-07-19T23:40:52.639Z,6.40
2018-07-19T23:43:24.783Z,5.97
2018-07-19T23:45:57.599Z,5.37
2018-07-19T23:48:25.739Z,5.23
2018-07-19T23:50:53.928Z,5.23
2018-07-19T23:53:22.183Z,4.93
2018-07-19T23:55:50.102Z,5.47
2018-07-19T23:58:18.219Z,5.23
